Presidente Getulio, Brazil
Current Conditions -  °F | °C
As of 1:00 PM on Sunday 21 Dec 2014 (Local Time) from SBNF Reporting Station
Few Clouds Few Clouds  
Wind Chill: 84°   Ceiling: Unl
Heat Index: 96°   Visibility: 6mi
Dew Point: 79°   Wind: 9mph
Humidity: 84%   Direction: 80°E
Pressure: 29.65"   Gusts: NA
Location:  27.05°S, 49.62°W
Report Text: SBNF 211500Z 08008KT 9999 FEW020 29/26 Q1004
Loading
Personal Weather Stations






























Interactive Weather Map New forecast layout! Learn more

10-Day Weather Forecast

Advertisements
Track Severe Weather on mobile